createdAt,value
2023-04-16T00:00:58.224Z,61.65
2023-04-16T00:02:01.516Z,71.89
2023-04-16T00:03:04.802Z,43.73
2023-04-16T00:04:07.108Z,25.81
2023-04-16T00:05:10.414Z,18.13
2023-04-16T00:06:13.697Z,15.57
2023-04-16T00:07:17.002Z,15.57
2023-04-16T00:08:20.289Z,10.45
2023-04-16T00:09:23.580Z,28.37
2023-04-16T00:10:26.870Z,41.17
2023-04-16T00:11:29.192Z,23.25
2023-04-16T00:12:31.478Z,13.01
2023-04-16T00:13:33.810Z,-7.48
2023-04-16T00:14:36.097Z,-10.04
2023-04-16T00:15:39.421Z,46.29
2023-04-16T00:16:42.690Z,53.97
2023-04-16T00:17:45.978Z,66.77
2023-04-16T00:18:49.288Z,94.93
2023-04-16T00:19:52.572Z,87.25
2023-04-16T00:20:55.867Z,64.21
2023-04-16T00:21:59.141Z,87.25
2023-04-16T00:23:02.474Z,87.25
2023-04-16T00:24:05.728Z,100.05
2023-04-16T00:25:09.030Z,133.33
2023-04-16T00:26:12.304Z,143.57
2023-04-16T00:27:15.601Z,161.49
2023-04-16T00:28:17.927Z,130.77
2023-04-16T00:29:21.210Z,128.21
2023-04-16T00:30:24.503Z,125.65
2023-04-16T00:31:27.810Z,130.77
2023-04-16T00:32:31.108Z,117.97
2023-04-16T00:34:38.031Z,123.09
2023-04-16T00:35:41.329Z,112.85
2023-04-16T00:36:43.650Z,110.29
2023-04-16T00:37:45.944Z,120.53
2023-04-16T00:38:49.244Z,125.65
2023-04-16T00:39:52.533Z,130.77
2023-04-16T00:40:55.823Z,138.45
2023-04-16T00:41:59.110Z,146.13
2023-04-16T00:43:02.387Z,0
2023-04-16T00:44:05.701Z,161.49
2023-04-16T00:45:08.974Z,146.13
2023-04-16T00:46:12.275Z,156.37
2023-04-16T00:47:15.591Z,135.89
2023-04-16T00:48:18.877Z,146.13
2023-04-16T00:49:22.167Z,217.81
2023-04-16T00:50:25.451Z,215.25
2023-04-16T00:51:27.745Z,171.73
2023-04-16T00:52:31.048Z,164.05
2023-04-16T00:53:34.349Z,158.93
2023-04-16T00:54:37.639Z,151.25
2023-04-16T00:55:41.247Z,158.93
2023-04-16T00:56:44.548Z,176.85
2023-04-16T00:57:47.871Z,184.53
2023-04-16T00:58:50.163Z,187.09
2023-04-16T00:59:52.454Z,202.45
2023-04-16T01:00:54.784Z,230.61
2023-04-16T01:01:57.102Z,217.81
2023-04-16T01:02:59.402Z,199.89
2023-04-16T01:04:01.685Z,220.37
2023-04-16T01:05:04.998Z,220.37
2023-04-16T01:06:08.283Z,225.49
2023-04-16T01:07:11.591Z,251.09
2023-04-16T01:08:14.875Z,251.09
2023-04-16T01:09:18.157Z,251.09
2023-04-16T01:10:21.453Z,240.85
2023-04-16T01:11:24.758Z,240.85
2023-04-16T01:12:28.044Z,233.17
2023-04-16T01:13:31.336Z,266.45
2023-04-16T01:14:34.629Z,251.09
2023-04-16T01:15:38.295Z,240.85
2023-04-16T01:16:41.591Z,256.21
2023-04-16T01:17:43.904Z,248.53
2023-04-16T01:18:47.209Z,251.09
2023-04-16T01:19:50.498Z,261.33
2023-04-16T01:20:53.774Z,258.77
2023-04-16T01:21:57.077Z,279.25
2023-04-16T01:23:00.374Z,269.01
2023-04-16T01:24:03.659Z,256.21
2023-04-16T01:25:05.987Z,261.33
2023-04-16T01:26:08.275Z,261.33
2023-04-16T01:27:11.574Z,253.65
2023-04-16T01:28:14.872Z,251.09
2023-04-16T01:29:17.206Z,243.41
2023-04-16T01:30:19.471Z,233.17
2023-04-16T01:31:22.786Z,233.17
2023-04-16T01:32:26.062Z,235.73
2023-04-16T01:33:29.354Z,230.61
2023-04-16T01:34:32.652Z,230.61
2023-04-16T01:35:35.943Z,217.81
2023-04-16T01:36:39.236Z,230.61
2023-04-16T01:37:42.532Z,238.29
2023-04-16T01:38:45.811Z,240.85
2023-04-16T01:39:49.099Z,245.97
2023-04-16T01:40:52.392Z,240.85
2023-04-16T01:41:55.704Z,253.65
2023-04-16T01:42:58.981Z,251.09
2023-04-16T01:44:01.277Z,251.09
2023-04-16T01:45:04.597Z,263.89
2023-04-16T01:46:07.890Z,281.81
2023-04-16T01:47:11.168Z,299.73
2023-04-16T01:48:14.452Z,302.29
2023-04-16T01:49:17.767Z,292.05
2023-04-16T01:50:21.053Z,292.05
2023-04-16T01:51:23.361Z,286.93
2023-04-16T01:52:25.659Z,322.77
2023-04-16T01:53:27.978Z,312.53
2023-04-16T01:54:30.274Z,307.41
2023-04-16T01:55:33.578Z,317.65
2023-04-16T01:56:36.869Z,317.65
2023-04-16T01:57:40.158Z,-327.47
2023-04-16T01:58:43.455Z,-327.47
2023-04-16T01:59:46.733Z,317.65
2023-04-16T02:00:50.031Z,315.09
2023-04-16T02:01:53.328Z,-309.55
2023-04-16T02:02:56.621Z,325.33
2023-04-16T02:03:59.904Z,320.21
2023-04-16T02:05:03.193Z,317.65
2023-04-16T02:06:06.494Z,-317.23
2023-04-16T02:07:09.787Z,325.33
2023-04-16T02:08:12.094Z,315.09
2023-04-16T02:09:15.379Z,309.97
2023-04-16T02:10:18.678Z,325.33
2023-04-16T02:11:21.966Z,325.33
2023-04-16T02:12:25.259Z,-314.67
2023-04-16T02:13:28.535Z,-281.39
2023-04-16T02:14:31.845Z,-314.67
2023-04-16T02:15:34.164Z,-312.11
2023-04-16T02:16:36.455Z,-314.67
2023-04-16T02:17:38.772Z,-291.63
2023-04-16T02:18:41.081Z,-317.23
2023-04-16T02:19:44.378Z,-286.51
2023-04-16T02:20:47.654Z,-286.51
2023-04-16T02:21:50.947Z,-314.67
2023-04-16T02:22:54.257Z,-283.95
2023-04-16T02:23:57.548Z,-278.83
2023-04-16T02:25:00.836Z,-273.71
2023-04-16T02:26:04.110Z,-266.03
2023-04-16T02:27:07.416Z,-263.47
2023-04-16T02:28:10.722Z,-283.95
2023-04-16T02:29:14.003Z,-273.71
2023-04-16T02:30:17.296Z,-245.55
2023-04-16T02:31:20.594Z,-263.47
2023-04-16T02:32:22.909Z,-253.23
2023-04-16T02:33:26.186Z,-237.87
2023-04-16T02:34:29.465Z,-227.63
2023-04-16T02:35:32.754Z,-242.99
2023-04-16T02:36:36.065Z,-253.23
2023-04-16T02:37:39.357Z,-227.63
2023-04-16T02:38:42.637Z,-230.19
2023-04-16T02:39:44.974Z,-212.27
2023-04-16T02:40:47.267Z,-222.51
2023-04-16T02:41:49.588Z,-199.47
2023-04-16T02:42:51.885Z,-191.79
2023-04-16T02:43:55.169Z,-202.03
2023-04-16T02:44:58.465Z,-207.15
2023-04-16T02:46:01.750Z,-194.35
2023-04-16T02:47:05.043Z,-202.03
2023-04-16T02:48:08.336Z,-212.27
2023-04-16T02:49:11.629Z,-214.83
2023-04-16T02:50:14.931Z,-214.83
2023-04-16T02:51:18.226Z,-222.51
2023-04-16T02:52:20.532Z,-214.83
2023-04-16T02:53:23.843Z,-225.07
2023-04-16T02:54:27.110Z,-225.07
2023-04-16T02:55:30.414Z,-222.51
2023-04-16T02:56:33.695Z,-227.63
2023-04-16T02:57:36.996Z,-219.95
2023-04-16T02:58:40.270Z,-245.55
2023-04-16T02:59:43.584Z,-232.75
2023-04-16T03:00:46.858Z,-230.19
2023-04-16T03:01:50.192Z,-242.99
2023-04-16T03:02:53.455Z,-230.19
2023-04-16T03:03:55.760Z,-202.03
2023-04-16T03:04:58.078Z,-242.99
2023-04-16T03:06:00.386Z,-199.47
2023-04-16T03:07:02.688Z,-158.51
2023-04-16T03:08:05.975Z,-207.15
2023-04-16T03:09:09.258Z,-240.43
2023-04-16T03:10:12.576Z,-212.27
2023-04-16T03:11:15.862Z,-240.43
2023-04-16T03:12:19.165Z,-258.35
2023-04-16T03:13:22.430Z,-232.75
2023-04-16T03:14:25.731Z,-248.11
2023-04-16T03:15:29.022Z,-260.91
2023-04-16T03:16:32.314Z,-253.23
2023-04-16T03:17:35.627Z,-248.11
2023-04-16T03:18:39.306Z,-250.67
2023-04-16T03:19:42.604Z,-260.91
2023-04-16T03:20:44.922Z,0
2023-04-16T03:21:48.199Z,-204.59
2023-04-16T03:22:51.485Z,-207.15
2023-04-16T03:23:54.828Z,271.52
2023-04-16T03:24:58.057Z,-214.83
2023-04-16T03:26:01.378Z,-209.71
2023-04-16T03:27:04.671Z,-217.39
2023-04-16T03:28:06.973Z,-237.87
2023-04-16T03:29:09.284Z,-235.31
2023-04-16T03:30:12.552Z,-240.43
2023-04-16T03:31:15.868Z,-232.75
2023-04-16T03:32:19.160Z,-222.51
2023-04-16T03:33:22.439Z,-202.03
2023-04-16T03:34:25.747Z,-212.27
2023-04-16T03:35:29.040Z,-212.27
2023-04-16T03:36:32.315Z,-214.83
2023-04-16T03:37:35.607Z,-219.95
2023-04-16T03:38:39.196Z,-181.55
2023-04-16T03:39:42.498Z,-191.79
2023-04-16T03:40:45.780Z,-178.99
2023-04-16T03:41:49.083Z,-196.91
2023-04-16T03:42:51.387Z,-202.03
2023-04-16T03:43:54.687Z,-189.23
2023-04-16T03:44:57.978Z,-207.15
2023-04-16T03:46:01.264Z,-222.51
2023-04-16T03:47:04.541Z,-202.03
2023-04-16T03:48:07.829Z,-202.03
2023-04-16T03:49:11.140Z,-219.95
2023-04-16T03:50:13.453Z,-217.39
2023-04-16T03:51:15.756Z,-204.59
2023-04-16T03:52:18.062Z,-207.15
2023-04-16T03:53:20.380Z,-232.75
2023-04-16T03:54:23.672Z,-217.39
2023-04-16T03:55:25.986Z,-237.87
2023-04-16T03:56:28.282Z,-235.31
2023-04-16T03:57:31.583Z,-227.63
2023-04-16T03:58:34.868Z,-250.67
2023-04-16T03:59:38.159Z,-248.11
2023-04-16T04:00:41.494Z,-245.55
2023-04-16T04:01:44.750Z,-209.71
2023-04-16T04:02:48.032Z,-253.23
2023-04-16T04:03:51.340Z,-225.07
2023-04-16T04:04:54.633Z,-222.51
2023-04-16T04:05:57.901Z,-222.51
2023-04-16T04:07:01.227Z,-217.39
2023-04-16T04:08:04.492Z,-202.03
2023-04-16T04:09:07.788Z,-219.95
2023-04-16T04:10:10.099Z,-194.35
2023-04-16T04:11:13.396Z,-194.35
2023-04-16T04:12:16.687Z,-209.71
2023-04-16T04:13:20.004Z,-196.91
2023-04-16T04:14:23.287Z,-209.71
2023-04-16T04:15:26.553Z,-194.35
2023-04-16T04:16:29.844Z,-202.03
2023-04-16T04:17:32.185Z,-189.23
2023-04-16T04:18:34.486Z,-181.55
2023-04-16T04:19:36.792Z,-148.27
2023-04-16T04:20:39.521Z,-173.87
2023-04-16T04:21:42.831Z,-161.07
2023-04-16T04:22:46.093Z,-176.43
2023-04-16T04:23:49.391Z,-168.75
2023-04-16T04:24:52.671Z,-171.31
2023-04-16T04:25:55.989Z,-194.35
2023-04-16T04:26:59.266Z,-194.35
2023-04-16T04:28:02.553Z,-189.23
2023-04-16T04:29:05.834Z,-248.11
2023-04-16T04:30:09.120Z,-217.39
2023-04-16T04:31:12.427Z,-155.95
2023-04-16T04:32:15.714Z,-143.15
2023-04-16T04:33:19.022Z,-153.39
2023-04-16T04:34:21.305Z,-173.87
2023-04-16T04:35:24.615Z,-173.87
2023-04-16T04:36:27.898Z,-132.91
2023-04-16T04:37:31.184Z,-148.27
2023-04-16T04:38:34.480Z,-161.07
2023-04-16T04:39:37.778Z,-138.03
2023-04-16T04:40:41.059Z,-196.91
2023-04-16T04:41:43.376Z,-194.35
2023-04-16T04:42:45.696Z,-166.19
2023-04-16T04:43:47.994Z,-178.99
2023-04-16T04:44:50.305Z,-158.51
2023-04-16T04:45:53.598Z,-184.11
2023-04-16T04:46:56.880Z,-158.51
2023-04-16T04:48:00.180Z,-143.15
2023-04-16T04:49:03.482Z,-114.99
2023-04-16T04:50:06.746Z,-132.91
2023-04-16T04:51:10.043Z,-155.95
2023-04-16T04:52:13.351Z,-127.79
2023-04-16T04:53:16.640Z,-132.91
2023-04-16T04:54:19.926Z,-130.35
2023-04-16T04:55:23.221Z,-112.43
2023-04-16T04:56:26.510Z,-120.11
2023-04-16T04:57:29.808Z,0
2023-04-16T04:58:32.119Z,-91.95
2023-04-16T04:59:35.388Z,-117.55
2023-04-16T05:00:38.700Z,-125.23
2023-04-16T05:01:41.991Z,-107.31
2023-04-16T05:02:45.286Z,-104.75
2023-04-16T05:03:48.573Z,-114.99
2023-04-16T05:04:51.858Z,-122.67
2023-04-16T05:05:54.190Z,-132.91
2023-04-16T05:06:56.492Z,-117.55
2023-04-16T05:07:59.779Z,-143.15
2023-04-16T05:09:02.084Z,-153.39
2023-04-16T05:10:04.403Z,-148.27
2023-04-16T05:11:07.686Z,-140.59
2023-04-16T05:12:10.984Z,-148.27
2023-04-16T05:13:14.292Z,-163.63
2023-04-16T05:14:17.574Z,-186.67
2023-04-16T05:15:20.851Z,-168.75
2023-04-16T05:16:24.161Z,-135.47
2023-04-16T05:17:27.441Z,-217.39
2023-04-16T05:18:30.737Z,-181.55
2023-04-16T05:19:34.023Z,-207.15
2023-04-16T05:20:37.306Z,-222.51
2023-04-16T05:21:40.618Z,-199.47
2023-04-16T05:22:43.912Z,-219.95
2023-04-16T05:23:46.218Z,-202.03
2023-04-16T05:24:49.501Z,-217.39
2023-04-16T05:25:52.789Z,-204.59
2023-04-16T05:26:56.085Z,-207.15
2023-04-16T05:27:59.380Z,-209.71
2023-04-16T05:29:02.669Z,-222.51
2023-04-16T05:30:06.003Z,-199.47
2023-04-16T05:31:08.286Z,-189.23
2023-04-16T05:32:10.590Z,-214.83
2023-04-16T05:33:12.885Z,-214.83
2023-04-16T05:34:15.203Z,-217.39
2023-04-16T05:35:18.486Z,-209.71
2023-04-16T05:36:21.782Z,-212.27
2023-04-16T05:37:25.081Z,-202.03
2023-04-16T05:38:28.364Z,-178.99
2023-04-16T05:39:31.648Z,-181.55
2023-04-16T05:40:34.958Z,-214.83
2023-04-16T05:41:38.233Z,-196.91
2023-04-16T05:42:41.534Z,-217.39
2023-04-16T05:43:44.826Z,-184.11
2023-04-16T05:44:48.109Z,-163.63
2023-04-16T05:45:51.421Z,-117.55
2023-04-16T05:46:54.711Z,-122.67
2023-04-16T05:47:57.012Z,-109.87
2023-04-16T05:49:00.307Z,0
2023-04-16T05:50:03.599Z,-94.51
2023-04-16T05:51:06.894Z,-109.87
2023-04-16T05:52:10.175Z,-97.07
2023-04-16T05:53:13.478Z,-86.83
2023-04-16T05:54:16.772Z,0
2023-04-16T05:55:19.075Z,-99.63
2023-04-16T05:56:21.387Z,-104.75
2023-04-16T05:57:24.664Z,-107.31
2023-04-16T05:58:27.000Z,-84.27
2023-04-16T05:59:29.304Z,-76.59
2023-04-16T06:00:32.595Z,-86.83
2023-04-16T06:01:35.899Z,-109.87
2023-04-16T06:02:39.200Z,-140.59
2023-04-16T06:03:42.461Z,-104.75
2023-04-16T06:04:45.761Z,-130.35
2023-04-16T06:05:49.038Z,-114.99
2023-04-16T06:06:52.404Z,-97.07
2023-04-16T06:07:55.632Z,-112.43
2023-04-16T06:08:58.927Z,-130.35
2023-04-16T06:10:02.216Z,-155.95
2023-04-16T06:11:05.507Z,-140.59
2023-04-16T06:12:08.793Z,-155.95
2023-04-16T06:13:11.107Z,-155.95
2023-04-16T06:14:14.400Z,-168.75
2023-04-16T06:15:17.697Z,-181.55
2023-04-16T06:16:20.991Z,-186.67
2023-04-16T06:17:24.287Z,-181.55
2023-04-16T06:18:27.577Z,-176.43
2023-04-16T06:19:30.872Z,-202.03
2023-04-16T06:20:33.193Z,-194.35
2023-04-16T06:21:35.485Z,-219.95
2023-04-16T06:22:37.795Z,-194.35
2023-04-16T06:23:40.316Z,-196.91
2023-04-16T06:24:43.602Z,-191.79
2023-04-16T06:25:46.898Z,-194.35
2023-04-16T06:26:50.174Z,-196.91
2023-04-16T06:27:53.460Z,-184.11
2023-04-16T06:28:56.854Z,-158.51
2023-04-16T06:30:00.061Z,-145.71
2023-04-16T06:31:03.339Z,-125.23
2023-04-16T06:32:06.658Z,-125.23
2023-04-16T06:33:09.934Z,-112.43
2023-04-16T06:34:13.219Z,-158.51
2023-04-16T06:35:16.546Z,-132.91
2023-04-16T06:36:19.812Z,-153.39
2023-04-16T06:37:22.114Z,-158.51
2023-04-16T06:38:25.413Z,-130.35
2023-04-16T06:39:28.696Z,-173.87
2023-04-16T06:40:32.000Z,-132.91
2023-04-16T06:41:35.283Z,-143.15
2023-04-16T06:42:38.584Z,-71.47
2023-04-16T06:43:41.872Z,-109.87
2023-04-16T06:44:44.208Z,-89.39
2023-04-16T06:45:46.500Z,-109.87
2023-04-16T06:46:48.818Z,-114.99
2023-04-16T06:47:51.119Z,-125.23
2023-04-16T06:48:54.397Z,-140.59
2023-04-16T06:49:57.713Z,-125.23
2023-04-16T06:51:00.995Z,-145.71
2023-04-16T06:52:04.276Z,-194.35
2023-04-16T06:53:07.563Z,-132.91
2023-04-16T06:54:10.859Z,0
2023-04-16T06:55:14.161Z,0
2023-04-16T06:56:17.478Z,-138.03
2023-04-16T06:57:20.728Z,-122.67
2023-04-16T06:58:24.042Z,-107.31
2023-04-16T06:59:27.326Z,-94.51
2023-04-16T07:00:30.622Z,-112.43
2023-04-16T07:01:32.949Z,-109.87
2023-04-16T07:02:36.218Z,-91.95
2023-04-16T07:03:39.526Z,-79.15
2023-04-16T07:04:42.833Z,-122.67
2023-04-16T07:05:46.112Z,-94.51
2023-04-16T07:06:49.402Z,-71.47
2023-04-16T07:07:52.678Z,-45.87
2023-04-16T07:08:55.007Z,-33.07
2023-04-16T07:09:57.303Z,-71.47
2023-04-16T07:10:59.610Z,-58.67
2023-04-16T07:12:01.926Z,-84.27
2023-04-16T07:13:05.218Z,-94.51
2023-04-16T07:14:08.517Z,-86.83
2023-04-16T07:15:11.801Z,-89.39
2023-04-16T07:16:15.109Z,-91.95
2023-04-16T07:17:18.396Z,-127.79
2023-04-16T07:18:21.672Z,-130.35
2023-04-16T07:19:24.961Z,-143.15
2023-04-16T07:20:28.256Z,-127.79
2023-04-16T07:21:31.556Z,-150.83
2023-04-16T07:22:34.856Z,-120.11
2023-04-16T07:23:38.144Z,-145.71
2023-04-16T07:24:41.439Z,-112.43
2023-04-16T07:25:43.733Z,-91.95
2023-04-16T07:26:47.064Z,-68.91
2023-04-16T07:27:50.390Z,-104.75
2023-04-16T07:28:53.620Z,-117.55
2023-04-16T07:29:56.934Z,-68.91
2023-04-16T07:31:00.199Z,-71.47
2023-04-16T07:32:03.486Z,-109.87
2023-04-16T07:33:05.849Z,-132.91
2023-04-16T07:34:08.115Z,-97.07
2023-04-16T07:35:10.418Z,-125.23
2023-04-16T07:36:12.760Z,-79.15
2023-04-16T07:37:16.031Z,-53.55
2023-04-16T07:38:19.312Z,-84.27
2023-04-16T07:39:22.620Z,-86.83
2023-04-16T07:40:25.902Z,-53.55
2023-04-16T07:41:29.201Z,-53.55
2023-04-16T07:42:32.501Z,-53.55
2023-04-16T07:43:35.770Z,-102.19
2023-04-16T07:44:39.072Z,-81.71
2023-04-16T07:45:42.360Z,-56.11
2023-04-16T07:46:45.647Z,-40.75
2023-04-16T07:47:48.945Z,-40.75
2023-04-16T07:48:52.235Z,-43.31
2023-04-16T07:49:54.534Z,-63.79
2023-04-16T07:50:57.846Z,-33.07
2023-04-16T07:52:01.152Z,-15.15
2023-04-16T07:53:04.433Z,-7.47
2023-04-16T07:54:07.720Z,-2.35
2023-04-16T07:55:11.011Z,-7.47
2023-04-16T07:56:14.294Z,0.22
2023-04-16T07:57:16.640Z,-7.47
2023-04-16T07:58:20.012Z,-10.03
2023-04-16T07:59:22.340Z,-7.47
2023-04-16T08:00:24.646Z,-20.27
2023-04-16T08:01:27.923Z,-43.31
2023-04-16T08:02:31.206Z,-50.99
2023-04-16T08:03:34.508Z,-30.51
2023-04-16T08:04:37.884Z,-40.75
2023-04-16T08:05:41.182Z,-79.15
2023-04-16T08:06:44.473Z,-99.63
2023-04-16T08:07:47.745Z,-99.63
2023-04-16T08:08:51.040Z,-109.87
2023-04-16T08:09:54.341Z,-114.99
2023-04-16T08:10:57.657Z,-155.95
2023-04-16T08:12:00.911Z,-122.67
2023-04-16T08:13:04.224Z,-127.79
2023-04-16T08:14:06.500Z,-112.43
2023-04-16T08:15:09.834Z,-114.99
2023-04-16T08:16:13.090Z,-120.11
2023-04-16T08:17:16.398Z,-109.87
2023-04-16T08:18:19.692Z,-120.11
2023-04-16T08:19:22.981Z,-132.91
2023-04-16T08:20:26.270Z,-130.35
2023-04-16T08:21:28.578Z,-109.87
2023-04-16T08:22:30.877Z,-102.19
2023-04-16T08:23:33.189Z,-117.55
2023-04-16T08:24:35.502Z,-120.11
2023-04-16T08:25:38.805Z,-132.91
2023-04-16T08:26:42.110Z,-153.39
2023-04-16T08:27:45.375Z,-155.95
2023-04-16T08:28:48.675Z,-173.87
2023-04-16T08:29:51.963Z,-168.75
2023-04-16T08:30:55.255Z,-166.19
2023-04-16T08:31:58.541Z,-163.63
2023-04-16T08:33:01.898Z,-176.43
2023-04-16T08:34:05.146Z,-178.99
2023-04-16T08:35:08.423Z,-242.99
2023-04-16T08:36:11.729Z,-230.19
2023-04-16T08:37:15.048Z,-225.07
2023-04-16T08:38:17.322Z,-217.39
2023-04-16T08:39:20.621Z,-209.71
2023-04-16T08:40:23.894Z,-209.71
2023-04-16T08:41:27.197Z,-209.71
2023-04-16T08:42:30.541Z,-202.03
2023-04-16T08:43:33.850Z,-184.11
2023-04-16T08:44:37.079Z,-196.91
2023-04-16T08:45:39.412Z,-189.23
2023-04-16T08:46:41.716Z,-143.15
2023-04-16T08:47:44.969Z,-153.39
2023-04-16T08:48:48.278Z,-89.39
2023-04-16T08:49:50.585Z,-120.11
2023-04-16T08:50:52.894Z,-107.31
2023-04-16T08:51:56.210Z,-74.03
2023-04-16T08:52:59.492Z,-50.99
2023-04-16T08:54:02.774Z,-43.31
2023-04-16T08:55:06.060Z,-91.95
2023-04-16T08:56:09.362Z,-43.31
2023-04-16T08:57:12.645Z,-25.39
2023-04-16T08:58:15.946Z,2.78
2023-04-16T08:59:19.236Z,-50.99
2023-04-16T09:00:22.558Z,-89.39
2023-04-16T09:01:25.860Z,-109.87
2023-04-16T09:02:29.133Z,-317.23
2023-04-16T09:03:32.387Z,302.29
2023-04-16T09:04:34.708Z,158.93
2023-04-16T09:05:38.311Z,146.13
2023-04-16T09:06:41.625Z,233.17
2023-04-16T09:07:44.921Z,256.21
2023-04-16T09:08:48.171Z,0
2023-04-16T09:09:51.483Z,245.97
2023-04-16T09:10:54.769Z,284.37
2023-04-16T09:11:57.097Z,0
2023-04-16T09:12:59.380Z,312.53
2023-04-16T09:14:01.706Z,292.05
2023-04-16T09:15:04.034Z,-327.47
2023-04-16T09:16:07.306Z,-309.55
2023-04-16T09:17:10.604Z,-317.23
2023-04-16T09:18:13.948Z,320.21
2023-04-16T09:19:17.196Z,-296.75
2023-04-16T09:20:20.550Z,320.21
2023-04-16T09:21:23.797Z,-319.79
2023-04-16T09:22:27.078Z,-317.23
2023-04-16T09:23:30.354Z,-289.07
2023-04-16T09:24:33.645Z,-296.75
2023-04-16T09:25:36.943Z,-268.59
2023-04-16T09:26:40.290Z,-263.47
2023-04-16T09:27:43.525Z,-214.83
2023-04-16T09:28:45.838Z,-237.87
2023-04-16T09:29:49.123Z,-237.87
2023-04-16T09:30:52.399Z,-281.39
2023-04-16T09:31:55.695Z,-296.75
2023-04-16T09:32:58.989Z,-281.39
2023-04-16T09:34:02.286Z,-266.03
2023-04-16T09:35:05.585Z,-255.79
2023-04-16T09:36:07.910Z,-271.15
2023-04-16T09:37:10.195Z,-271.15
2023-04-16T09:38:12.532Z,-281.39
2023-04-16T09:39:14.822Z,-235.31
2023-04-16T09:40:18.105Z,-271.15
2023-04-16T09:41:21.397Z,-255.79
2023-04-16T09:42:24.692Z,-255.79
2023-04-16T09:43:27.986Z,-276.27
2023-04-16T09:44:31.280Z,-242.99
2023-04-16T09:45:34.577Z,-291.63
2023-04-16T09:46:37.858Z,-304.43
2023-04-16T09:47:41.637Z,-289.07
2023-04-16T09:48:44.917Z,-291.63
2023-04-16T09:49:48.194Z,-296.75
2023-04-16T09:50:51.460Z,-227.63
2023-04-16T09:51:54.768Z,-260.91
2023-04-16T09:52:57.084Z,-273.71
2023-04-16T09:54:00.387Z,-289.07
2023-04-16T09:55:02.685Z,-306.99
2023-04-16T09:56:05.977Z,-301.87
2023-04-16T09:57:09.268Z,-322.35
2023-04-16T09:58:12.582Z,-327.47
2023-04-16T09:59:15.837Z,-322.35
2023-04-16T10:00:18.185Z,-322.35
2023-04-16T10:01:20.480Z,-263.47
2023-04-16T10:02:22.801Z,-283.95
2023-04-16T10:03:25.099Z,-289.07
2023-04-16T10:04:28.378Z,-296.75
2023-04-16T10:05:31.670Z,-289.07
2023-04-16T10:06:35.075Z,-299.31
2023-04-16T10:07:38.686Z,-283.95
2023-04-16T10:08:41.977Z,-283.95
2023-04-16T10:09:45.268Z,-281.39
2023-04-16T10:10:48.565Z,-268.59
2023-04-16T10:11:51.912Z,-245.55
2023-04-16T10:12:55.152Z,-306.99
2023-04-16T10:13:58.476Z,243.41
2023-04-16T10:15:01.724Z,274.13
2023-04-16T10:16:05.046Z,253.65
2023-04-16T10:17:07.334Z,299.73
2023-04-16T10:18:10.631Z,266.45
2023-04-16T10:19:14.241Z,248.53
2023-04-16T10:20:17.203Z,253.65
2023-04-16T10:21:20.508Z,256.21
2023-04-16T10:22:23.788Z,271.57
2023-04-16T10:23:27.084Z,297.17
2023-04-16T10:24:29.437Z,297.17
2023-04-16T10:25:31.707Z,302.29
2023-04-16T10:26:34.028Z,289.49
2023-04-16T10:27:36.322Z,292.05
2023-04-16T10:28:39.612Z,289.49
2023-04-16T10:29:42.905Z,276.69
2023-04-16T10:30:46.194Z,289.49
2023-04-16T10:31:49.487Z,286.93
2023-04-16T10:32:52.788Z,276.69
2023-04-16T10:33:56.057Z,276.69
2023-04-16T10:34:59.350Z,269.01
2023-04-16T10:36:02.665Z,271.57
2023-04-16T10:37:05.945Z,274.13
2023-04-16T10:38:09.340Z,269.01
2023-04-16T10:39:12.537Z,263.89
2023-04-16T10:40:15.895Z,266.45
2023-04-16T10:41:18.192Z,269.01
2023-04-16T10:42:21.553Z,266.45
2023-04-16T10:43:24.782Z,263.89
2023-04-16T10:44:28.005Z,271.57
2023-04-16T10:45:31.287Z,271.57
2023-04-16T10:46:34.590Z,279.25
2023-04-16T10:47:37.886Z,263.89
2023-04-16T10:48:40.206Z,284.37
2023-04-16T10:49:42.541Z,274.13
2023-04-16T10:50:45.803Z,266.45
2023-04-16T10:51:48.104Z,286.93
2023-04-16T10:52:50.425Z,271.57
2023-04-16T10:53:53.718Z,299.73
2023-04-16T10:54:57.125Z,-306.99
2023-04-16T10:56:00.286Z,-319.79
2023-04-16T10:57:03.624Z,-327.47
2023-04-16T10:58:06.907Z,-322.35
2023-04-16T10:59:10.174Z,-309.55
2023-04-16T11:00:13.484Z,-306.99
2023-04-16T11:01:16.770Z,-289.07
2023-04-16T11:02:20.075Z,-289.07
2023-04-16T11:03:23.334Z,-289.07
2023-04-16T11:04:26.694Z,-299.31
2023-04-16T11:05:29.917Z,41.35
2023-04-16T11:07:35.597Z,-312.11
2023-04-16T11:08:39.088Z,-312.11
2023-04-16T11:09:42.367Z,-312.11
2023-04-16T11:10:45.682Z,-309.55
2023-04-16T11:11:48.962Z,-299.31
2023-04-16T11:12:52.254Z,-312.11
2023-04-16T11:13:55.533Z,-309.55
2023-04-16T11:14:57.877Z,-299.31
2023-04-16T11:16:00.170Z,-312.11
2023-04-16T11:17:03.462Z,-309.55
2023-04-16T11:18:06.753Z,-317.23
2023-04-16T11:19:10.055Z,317.65
2023-04-16T11:20:13.329Z,-317.23
2023-04-16T11:21:16.629Z,-317.23
2023-04-16T11:22:19.930Z,-314.67
2023-04-16T11:23:23.208Z,-312.11
2023-04-16T11:24:26.506Z,-327.47
2023-04-16T11:25:29.800Z,-309.55
2023-04-16T11:26:33.097Z,-309.55
2023-04-16T11:27:36.377Z,-278.83
2023-04-16T11:28:39.664Z,-296.75
2023-04-16T11:29:42.164Z,-281.39
2023-04-16T11:30:45.439Z,-314.67
2023-04-16T11:31:48.731Z,-309.55
2023-04-16T11:32:52.032Z,-306.99
2023-04-16T11:33:55.343Z,0
2023-04-16T11:34:58.609Z,-276.27
2023-04-16T11:36:01.970Z,-278.83
2023-04-16T11:37:04.214Z,-281.39
2023-04-16T11:38:06.532Z,-278.83
2023-04-16T11:39:08.854Z,-276.27
2023-04-16T11:40:11.147Z,-276.27
2023-04-16T11:41:13.465Z,-258.35
2023-04-16T11:42:15.764Z,-253.23
2023-04-16T11:43:19.061Z,-250.67
2023-04-16T11:44:22.346Z,-263.47
2023-04-16T11:45:25.651Z,-250.67
2023-04-16T11:46:28.948Z,0
2023-04-16T11:47:32.238Z,-240.43
2023-04-16T11:48:35.529Z,-263.47
2023-04-16T11:49:38.820Z,-266.03
2023-04-16T11:50:42.292Z,-276.27
2023-04-16T11:51:45.594Z,-283.95
2023-04-16T11:52:48.878Z,-281.39
2023-04-16T11:53:52.177Z,-289.07
2023-04-16T11:54:55.474Z,-291.63
2023-04-16T11:55:57.785Z,-291.63
2023-04-16T11:57:01.068Z,-281.39
2023-04-16T11:58:04.365Z,-276.27
2023-04-16T11:59:07.667Z,-278.83
2023-04-16T12:00:10.942Z,-271.15
2023-04-16T12:01:14.246Z,-255.79
2023-04-16T12:02:17.522Z,-250.67
2023-04-16T12:03:19.837Z,-250.67
2023-04-16T12:04:22.154Z,-255.79
2023-04-16T12:05:24.472Z,-245.55
2023-04-16T12:06:26.759Z,-266.03
2023-04-16T12:07:30.055Z,-232.75
2023-04-16T12:08:33.362Z,-217.39
2023-04-16T12:09:36.668Z,-250.67
2023-04-16T12:10:39.937Z,-191.79
2023-04-16T12:11:43.228Z,-260.91
2023-04-16T12:12:46.550Z,-266.03
2023-04-16T12:13:49.905Z,-271.15
2023-04-16T12:14:53.111Z,-271.15
2023-04-16T12:15:56.426Z,-263.47
2023-04-16T12:16:59.697Z,-273.71
2023-04-16T12:18:03.018Z,-266.03
2023-04-16T12:19:06.376Z,-266.03
2023-04-16T12:20:08.631Z,-273.71
2023-04-16T12:21:11.890Z,-281.39
2023-04-16T12:22:15.153Z,-158.51
2023-04-16T12:23:18.449Z,-212.27
2023-04-16T12:24:21.734Z,-266.03
2023-04-16T12:25:25.029Z,-237.87
2023-04-16T12:26:28.333Z,-181.55
2023-04-16T12:27:30.655Z,-237.87
2023-04-16T12:28:32.969Z,-235.31
2023-04-16T12:29:36.228Z,-232.75
2023-04-16T12:30:39.693Z,-227.63
2023-04-16T12:31:41.978Z,-91.95
2023-04-16T12:32:45.760Z,-2.35
2023-04-16T12:33:48.078Z,-56.11
2023-04-16T12:34:51.361Z,0.22
2023-04-16T12:35:54.653Z,-15.15
2023-04-16T12:36:57.941Z,-27.95
2023-04-16T12:38:01.245Z,-25.39
2023-04-16T12:39:04.542Z,0
2023-04-16T12:40:07.840Z,-20.27
2023-04-16T12:41:11.119Z,33.5
2023-04-16T12:42:14.418Z,30.94
2023-04-16T12:43:17.718Z,28.38
2023-04-16T12:44:20.997Z,43.74
2023-04-16T12:45:24.276Z,38.62
2023-04-16T12:46:27.586Z,74.46
2023-04-16T12:47:29.887Z,79.58
2023-04-16T12:48:33.170Z,-68.91
2023-04-16T12:49:36.516Z,-25.39
2023-04-16T12:50:39.763Z,-102.19
2023-04-16T12:51:43.044Z,-184.11
2023-04-16T12:52:46.361Z,-209.71
2023-04-16T12:53:48.653Z,-232.75
2023-04-16T12:54:51.006Z,-258.35
2023-04-16T12:55:53.287Z,-266.03
2023-04-16T12:56:55.693Z,-271.15
2023-04-16T12:57:58.907Z,-263.47